Hauptseite
METAR-TAF:

METAR-TAF

Flughäfen :

Flughafen Augsburg

Augsburg, Deutschland

Breite: 48-26N, Länge: 010-56E, Höhe: 461 m

Beobachtung

Neuester Wetterbericht von vor 31 Minuten, um 06:50 UTC
Windstille
Temperatur 11°C
Luftfeuchtigkeit 100%
Luftdruck 1027 hPa
Sichtweite 10 km oder mehr
Durchbrochene Bewölkung in der Höhe von 3900 ft

METAR: EDMA 070650Z 00000KT 9999 BKN039 11/11 Q1027

Zeit: 09:21 (07:21 UTC)

Prognose

Neuester Wetterbericht von vor 2 Stunden und 21 Minuten, um 05:00 UTC
Gültige Prognose vom 07 um 06 UTC bis 07 um 15 UTC
Wind 2 kt aus unterschiedlichen Richtungen
Sichtweite: 9000 m
Durchbrochene Bewölkung in der Höhe von 3000 ft
Wahrscheinlichkeit 30% :
Zeitweise
vom 07 um 07 UTC bis 07 um 10 UTC
Sichtweite: 2500 m
Durchbrochene Bewölkung in der Höhe von 800 ft
feuchter Dunst

TAF: EDMA 070500Z 0706/0715 VRB02KT 9000 BKN030 PROB30 TEMPO 0707/0710 2500 BR BKN008

Wetterbeobachtungen und Prognosen von mehr als 4000 Flughäfen (METAR und TAF Bericht).

Die verfügbaren Stationen werden durch gelbe und rote Markierungen auf der Karte dargestellt.

Führen Sie die Maus auf sie, um den Namen der Station zu sehen.

Darauf klicken, um die Beobachtung von Wetterbeobachtungen und Prognosen zu sehen.

Um die Karte zu ändern : klicken Sie auf den grünen Tasten mit einem schwarzen Kreuz Zum Vergrößern, auf den grünen Button mit einem Gedankenstrich zu verkleinern, oder auf die grünen Pfeile für benachbarte Karten.


METAR-TAF: